sensor_id;sensor_type;location;lat;lon;timestamp;pressure;altitude;pressure_sealevel;temperature;humidity
75039;BME280;63609;49.992;14.512;2023-04-24T00:03:30;96981.00;;;10.31;63.08
75039;BME280;63609;49.992;14.512;2023-04-24T00:05:57;96972.94;;;11.08;60.26
75039;BME280;63609;49.992;14.512;2023-04-24T00:08:25;96982.47;;;11.02;60.68
75039;BME280;63609;49.992;14.512;2023-04-24T00:10:52;96969.75;;;11.27;59.68
75039;BME280;63609;49.992;14.512;2023-04-24T00:13:19;96960.06;;;11.26;59.12
75039;BME280;63609;49.992;14.512;2023-04-24T00:15:46;96972.34;;;11.50;58.67
75039;BME280;63609;49.992;14.512;2023-04-24T00:18:13;96962.56;;;11.28;58.80
75039;BME280;63609;49.992;14.512;2023-04-24T00:20:40;96961.19;;;11.17;59.38
75039;BME280;63609;49.992;14.512;2023-04-24T00:23:07;96951.38;;;11.10;59.67
75039;BME280;63609;49.992;14.512;2023-04-24T00:25:34;96949.41;;;11.03;59.83
75039;BME280;63609;49.992;14.512;2023-04-24T00:28:01;96950.59;;;11.01;59.48
75039;BME280;63609;49.992;14.512;2023-04-24T00:30:29;96958.81;;;10.76;60.25
75039;BME280;63609;49.992;14.512;2023-04-24T00:32:55;96949.56;;;10.50;60.44
75039;BME280;63609;49.992;14.512;2023-04-24T00:35:23;96954.47;;;10.61;60.35
75039;BME280;63609;49.992;14.512;2023-04-24T00:37:51;96940.09;;;10.39;60.24
75039;BME280;63609;49.992;14.512;2023-04-24T00:40:18;96937.91;;;10.42;60.08
75039;BME280;63609;49.992;14.512;2023-04-24T00:42:45;96944.91;;;10.43;60.24
75039;BME280;63609;49.992;14.512;2023-04-24T00:45:12;96941.16;;;10.30;59.99
75039;BME280;63609;49.992;14.512;2023-04-24T00:47:40;96945.41;;;9.93;60.46
75039;BME280;63609;49.992;14.512;2023-04-24T00:50:08;96942.56;;;9.95;59.83
75039;BME280;63609;49.992;14.512;2023-04-24T00:52:35;96945.81;;;10.05;60.01
75039;BME280;63609;49.992;14.512;2023-04-24T00:55:02;96944.22;;;9.48;61.09
75039;BME280;63609;49.992;14.512;2023-04-24T00:57:30;96952.56;;;9.85;60.04
75039;BME280;63609;49.992;14.512;2023-04-24T00:59:57;96956.13;;;10.08;59.38
75039;BME280;63609;49.992;14.512;2023-04-24T01:02:24;96948.78;;;10.10;59.47
75039;BME280;63609;49.992;14.512;2023-04-24T01:04:52;96957.28;;;10.36;58.53
75039;BME280;63609;49.992;14.512;2023-04-24T01:07:21;96948.09;;;10.39;58.64
75039;BME280;63609;49.992;14.512;2023-04-24T01:09:50;96948.94;;;10.17;58.99
75039;BME280;63609;49.992;14.512;2023-04-24T01:12:19;96944.97;;;10.35;59.09
75039;BME280;63609;49.992;14.512;2023-04-24T01:14:46;96941.59;;;10.19;59.41
75039;BME280;63609;49.992;14.512;2023-04-24T01:17:14;96936.25;;;9.79;60.70
75039;BME280;63609;49.992;14.512;2023-04-24T01:19:42;96945.06;;;9.80;61.20
75039;BME280;63609;49.992;14.512;2023-04-24T01:22:13;96935.56;;;9.94;60.75
75039;BME280;63609;49.992;14.512;2023-04-24T01:24:41;96939.84;;;10.03;60.58
75039;BME280;63609;49.992;14.512;2023-04-24T01:27:11;96935.44;;;10.10;60.78
75039;BME280;63609;49.992;14.512;2023-04-24T01:29:38;96942.22;;;10.43;60.09
75039;BME280;63609;49.992;14.512;2023-04-24T01:32:06;96932.91;;;9.94;61.33
75039;BME280;63609;49.992;14.512;2023-04-24T01:34:34;96932.50;;;10.05;61.16
75039;BME280;63609;49.992;14.512;2023-04-24T01:37:04;96927.25;;;10.20;60.72
75039;BME280;63609;49.992;14.512;2023-04-24T01:39:32;96924.38;;;10.44;59.95
75039;BME280;63609;49.992;14.512;2023-04-24T01:42:00;96922.31;;;10.54;59.64
75039;BME280;63609;49.992;14.512;2023-04-24T01:44:28;96914.38;;;10.46;59.59
75039;BME280;63609;49.992;14.512;2023-04-24T01:46:56;96917.56;;;10.41;59.56
75039;BME280;63609;49.992;14.512;2023-04-24T01:49:23;96917.00;;;10.54;59.47
75039;BME280;63609;49.992;14.512;2023-04-24T01:51:50;96917.56;;;10.64;59.08
75039;BME280;63609;49.992;14.512;2023-04-24T01:54:17;96908.19;;;10.68;58.84
75039;BME280;63609;49.992;14.512;2023-04-24T01:56:45;96901.69;;;10.25;59.59
75039;BME280;63609;49.992;14.512;2023-04-24T01:59:13;96900.22;;;10.23;59.90
75039;BME280;63609;49.992;14.512;2023-04-24T02:01:40;96893.84;;;10.01;60.14
75039;BME280;63609;49.992;14.512;2023-04-24T02:04:07;96895.38;;;9.95;60.80
75039;BME280;63609;49.992;14.512;2023-04-24T02:06:35;96893.06;;;9.92;61.02
75039;BME280;63609;49.992;14.512;2023-04-24T02:09:02;96899.47;;;10.06;60.87
75039;BME280;63609;49.992;14.512;2023-04-24T02:11:30;96896.44;;;9.78;62.56
75039;BME280;63609;49.992;14.512;2023-04-24T02:13:57;96899.66;;;10.04;62.36
75039;BME280;63609;49.992;14.512;2023-04-24T02:16:24;96899.94;;;9.78;62.62
75039;BME280;63609;49.992;14.512;2023-04-24T02:18:51;96897.59;;;9.52;64.02
75039;BME280;63609;49.992;14.512;2023-04-24T02:21:18;96897.75;;;9.51;64.62
75039;BME280;63609;49.992;14.512;2023-04-24T02:23:45;96900.22;;;9.61;64.66
75039;BME280;63609;49.992;14.512;2023-04-24T02:26:12;96891.25;;;9.85;64.15
75039;BME280;63609;49.992;14.512;2023-04-24T02:28:39;96899.25;;;9.85;64.01
75039;BME280;63609;49.992;14.512;2023-04-24T02:31:06;96895.84;;;9.68;64.59
75039;BME280;63609;49.992;14.512;2023-04-24T02:33:33;96903.63;;;10.08;63.25
75039;BME280;63609;49.992;14.512;2023-04-24T02:36:01;96890.09;;;9.79;64.00
75039;BME280;63609;49.992;14.512;2023-04-24T02:38:29;96890.25;;;9.86;63.89
75039;BME280;63609;49.992;14.512;2023-04-24T02:40:56;96887.50;;;9.71;64.82
75039;BME280;63609;49.992;14.512;2023-04-24T02:43:25;96888.47;;;10.09;63.49
75039;BME280;63609;49.992;14.512;2023-04-24T02:45:52;96891.22;;;10.24;62.88
75039;BME280;63609;49.992;14.512;2023-04-24T02:48:19;96883.78;;;9.80;64.43
75039;BME280;63609;49.992;14.512;2023-04-24T02:50:47;96886.94;;;10.15;63.36
75039;BME280;63609;49.992;14.512;2023-04-24T02:53:14;96889.94;;;9.80;64.52
75039;BME280;63609;49.992;14.512;2023-04-24T02:55:41;96890.25;;;10.39;62.81
75039;BME280;63609;49.992;14.512;2023-04-24T02:58:09;96887.16;;;10.05;63.71
75039;BME280;63609;49.992;14.512;2023-04-24T03:00:39;96896.00;;;10.28;63.04
75039;BME280;63609;49.992;14.512;2023-04-24T03:03:06;96900.22;;;10.23;63.32
75039;BME280;63609;49.992;14.512;2023-04-24T03:05:34;96897.78;;;10.36;62.82
75039;BME280;63609;49.992;14.512;2023-04-24T03:08:01;96900.81;;;10.33;63.06
75039;BME280;63609;49.992;14.512;2023-04-24T03:10:28;96899.50;;;10.52;62.71
75039;BME280;63609;49.992;14.512;2023-04-24T03:12:55;96889.88;;;9.97;64.23
75039;BME280;63609;49.992;14.512;2023-04-24T03:15:22;96893.22;;;10.22;63.62
75039;BME280;63609;49.992;14.512;2023-04-24T03:17:49;96888.56;;;10.61;62.12
75039;BME280;63609;49.992;14.512;2023-04-24T03:20:16;96890.66;;;10.51;62.41
75039;BME280;63609;49.992;14.512;2023-04-24T03:22:44;96891.34;;;10.45;62.62
75039;BME280;63609;49.992;14.512;2023-04-24T03:25:11;96884.19;;;10.45;62.01
75039;BME280;63609;49.992;14.512;2023-04-24T03:27:38;96888.09;;;10.58;62.21
75039;BME280;63609;49.992;14.512;2023-04-24T03:30:34;96884.81;;;10.70;61.64
75039;BME280;63609;49.992;14.512;2023-04-24T03:33:02;96877.38;;;10.81;61.44
75039;BME280;63609;49.992;14.512;2023-04-24T03:35:33;96882.53;;;10.82;60.96
75039;BME280;63609;49.992;14.512;2023-04-24T03:38:03;96885.44;;;10.35;62.63
75039;BME280;63609;49.992;14.512;2023-04-24T03:40:53;96881.59;;;10.15;63.42
75039;BME280;63609;49.992;14.512;2023-04-24T03:43:37;96875.78;;;10.11;63.65
75039;BME280;63609;49.992;14.512;2023-04-24T03:46:05;96876.59;;;10.34;63.10
75039;BME280;63609;49.992;14.512;2023-04-24T03:48:37;96882.56;;;10.22;62.91
75039;BME280;63609;49.992;14.512;2023-04-24T03:51:06;96881.09;;;10.11;63.35
75039;BME280;63609;49.992;14.512;2023-04-24T03:53:35;96884.28;;;10.15;63.22
75039;BME280;63609;49.992;14.512;2023-04-24T03:56:03;96893.59;;;10.19;63.52
75039;BME280;63609;49.992;14.512;2023-04-24T03:58:31;96899.34;;;10.45;62.46
75039;BME280;63609;49.992;14.512;2023-04-24T04:00:59;96907.53;;;10.43;62.45
75039;BME280;63609;49.992;14.512;2023-04-24T04:03:45;96904.88;;;10.43;62.41
75039;BME280;63609;49.992;14.512;2023-04-24T04:06:15;96907.69;;;10.50;62.73
75039;BME280;63609;49.992;14.512;2023-04-24T04:08:43;96908.19;;;10.45;62.74
75039;BME280;63609;49.992;14.512;2023-04-24T04:11:10;96909.75;;;10.40;63.25
75039;BME280;63609;49.992;14.512;2023-04-24T04:13:37;96908.53;;;10.65;62.34
75039;BME280;63609;49.992;14.512;2023-04-24T04:16:04;96913.84;;;10.28;63.24
75039;BME280;63609;49.992;14.512;2023-04-24T04:18:31;96908.50;;;10.28;63.81
75039;BME280;63609;49.992;14.512;2023-04-24T04:20:59;96910.69;;;10.01;64.59
75039;BME280;63609;49.992;14.512;2023-04-24T04:23:28;96911.34;;;10.26;64.21
75039;BME280;63609;49.992;14.512;2023-04-24T04:26:17;96909.19;;;10.44;63.21
75039;BME280;63609;49.992;14.512;2023-04-24T04:29:03;96922.13;;;10.33;63.57
75039;BME280;63609;49.992;14.512;2023-04-24T04:31:32;96913.59;;;10.60;62.73
75039;BME280;63609;49.992;14.512;2023-04-24T04:34:04;96924.38;;;10.67;62.51
75039;BME280;63609;49.992;14.512;2023-04-24T04:36:32;96919.94;;;10.59;62.96
75039;BME280;63609;49.992;14.512;2023-04-24T04:39:23;96927.59;;;11.00;61.78
75039;BME280;63609;49.992;14.512;2023-04-24T04:41:55;96932.75;;;10.64;62.69
75039;BME280;63609;49.992;14.512;2023-04-24T04:44:28;96929.94;;;11.18;60.97
75039;BME280;63609;49.992;14.512;2023-04-24T04:46:59;96934.47;;;10.80;62.36
75039;BME280;63609;49.992;14.512;2023-04-24T04:49:30;96919.84;;;10.53;62.88
75039;BME280;63609;49.992;14.512;2023-04-24T04:51:58;96930.41;;;10.84;62.03
75039;BME280;63609;49.992;14.512;2023-04-24T04:54:26;96943.59;;;10.85;61.87
75039;BME280;63609;49.992;14.512;2023-04-24T04:56:53;96934.38;;;10.88;61.88
75039;BME280;63609;49.992;14.512;2023-04-24T04:59:21;96927.31;;;10.95;61.74
75039;BME280;63609;49.992;14.512;2023-04-24T05:01:53;96936.13;;;10.58;62.81
75039;BME280;63609;49.992;14.512;2023-04-24T05:04:21;96938.63;;;10.13;64.08
75039;BME280;63609;49.992;14.512;2023-04-24T05:06:48;96947.88;;;10.49;63.68
75039;BME280;63609;49.992;14.512;2023-04-24T05:09:15;96945.56;;;10.68;62.41
75039;BME280;63609;49.992;14.512;2023-04-24T05:11:55;96949.72;;;10.48;63.49
75039;BME280;63609;49.992;14.512;2023-04-24T05:14:23;96950.13;;;10.83;62.03
75039;BME280;63609;49.992;14.512;2023-04-24T05:16:51;96951.97;;;10.82;62.29
75039;BME280;63609;49.992;14.512;2023-04-24T05:19:20;96952.78;;;10.37;63.38
75039;BME280;63609;49.992;14.512;2023-04-24T05:21:47;96961.63;;;10.83;62.20
75039;BME280;63609;49.992;14.512;2023-04-24T05:24:14;96959.63;;;11.00;61.22
75039;BME280;63609;49.992;14.512;2023-04-24T05:27:05;96963.03;;;10.71;62.50
75039;BME280;63609;49.992;14.512;2023-04-24T05:29:37;96960.56;;;10.69;62.35
75039;BME280;63609;49.992;14.512;2023-04-24T05:32:05;96967.16;;;10.59;62.92
75039;BME280;63609;49.992;14.512;2023-04-24T05:34:32;96967.72;;;10.69;62.34
75039;BME280;63609;49.992;14.512;2023-04-24T05:36:59;96963.03;;;10.94;61.50
75039;BME280;63609;49.992;14.512;2023-04-24T05:39:26;96972.09;;;10.47;62.75
75039;BME280;63609;49.992;14.512;2023-04-24T05:41:54;96964.88;;;10.70;62.63
75039;BME280;63609;49.992;14.512;2023-04-24T05:44:24;96965.59;;;10.64;62.63
75039;BME280;63609;49.992;14.512;2023-04-24T05:46:52;96967.25;;;10.88;62.19
75039;BME280;63609;49.992;14.512;2023-04-24T05:49:19;96965.16;;;11.21;61.19
75039;BME280;63609;49.992;14.512;2023-04-24T05:51:46;96973.22;;;10.53;63.17
75039;BME280;63609;49.992;14.512;2023-04-24T05:54:14;96974.97;;;10.60;62.61
75039;BME280;63609;49.992;14.512;2023-04-24T05:56:42;96977.13;;;10.65;62.83
75039;BME280;63609;49.992;14.512;2023-04-24T05:59:13;96978.16;;;10.33;63.23
75039;BME280;63609;49.992;14.512;2023-04-24T06:01:40;96985.25;;;10.49;62.84
75039;BME280;63609;49.992;14.512;2023-04-24T06:04:15;96990.03;;;10.99;61.53
75039;BME280;63609;49.992;14.512;2023-04-24T06:06:43;96989.81;;;10.86;61.89
75039;BME280;63609;49.992;14.512;2023-04-24T06:09:10;96987.69;;;10.81;62.07
75039;BME280;63609;49.992;14.512;2023-04-24T06:11:38;96992.53;;;10.77;62.80
75039;BME280;63609;49.992;14.512;2023-04-24T06:14:11;96989.63;;;10.87;62.23
75039;BME280;63609;49.992;14.512;2023-04-24T06:16:41;96997.13;;;11.06;62.73
75039;BME280;63609;49.992;14.512;2023-04-24T06:19:18;96996.34;;;10.60;63.87
75039;BME280;63609;49.992;14.512;2023-04-24T06:21:46;96997.63;;;10.41;64.41
75039;BME280;63609;49.992;14.512;2023-04-24T06:24:14;96996.41;;;10.21;65.63
75039;BME280;63609;49.992;14.512;2023-04-24T06:26:41;97007.63;;;10.39;65.87
75039;BME280;63609;49.992;14.512;2023-04-24T06:29:08;97003.16;;;10.63;65.08
75039;BME280;63609;49.992;14.512;2023-04-24T06:31:35;97006.13;;;10.68;64.83
75039;BME280;63609;49.992;14.512;2023-04-24T06:34:04;97006.69;;;10.32;65.84
75039;BME280;63609;49.992;14.512;2023-04-24T06:36:31;97009.66;;;10.37;66.15
75039;BME280;63609;49.992;14.512;2023-04-24T06:38:59;97006.06;;;10.53;65.60
75039;BME280;63609;49.992;14.512;2023-04-24T06:41:26;97005.09;;;10.69;65.49
75039;BME280;63609;49.992;14.512;2023-04-24T06:43:53;97017.81;;;10.90;64.54
75039;BME280;63609;49.992;14.512;2023-04-24T06:46:20;97016.00;;;10.36;66.27
75039;BME280;63609;49.992;14.512;2023-04-24T06:48:50;97011.22;;;10.55;66.48
75039;BME280;63609;49.992;14.512;2023-04-24T06:51:17;97019.19;;;10.32;66.43
75039;BME280;63609;49.992;14.512;2023-04-24T06:53:44;97012.31;;;10.37;66.57
75039;BME280;63609;49.992;14.512;2023-04-24T06:56:14;97005.13;;;10.07;67.97
75039;BME280;63609;49.992;14.512;2023-04-24T06:58:41;97006.72;;;10.24;67.96
75039;BME280;63609;49.992;14.512;2023-04-24T07:01:09;97021.72;;;9.86;68.33
75039;BME280;63609;49.992;14.512;2023-04-24T07:03:36;97012.53;;;9.97;68.47
75039;BME280;63609;49.992;14.512;2023-04-24T07:06:04;97013.38;;;10.28;67.42
75039;BME280;63609;49.992;14.512;2023-04-24T07:08:31;97012.78;;;10.18;67.76
75039;BME280;63609;49.992;14.512;2023-04-24T07:11:00;97008.50;;;10.32;67.65
75039;BME280;63609;49.992;14.512;2023-04-24T07:13:27;97014.63;;;10.09;68.07
75039;BME280;63609;49.992;14.512;2023-04-24T07:15:54;97013.78;;;10.40;68.19
75039;BME280;63609;49.992;14.512;2023-04-24T07:18:22;97011.28;;;10.16;68.47
75039;BME280;63609;49.992;14.512;2023-04-24T07:20:49;97015.56;;;10.25;68.45
75039;BME280;63609;49.992;14.512;2023-04-24T07:23:19;97017.00;;;10.35;68.13
75039;BME280;63609;49.992;14.512;2023-04-24T07:25:46;97021.47;;;10.66;68.07
75039;BME280;63609;49.992;14.512;2023-04-24T07:28:13;97020.78;;;10.18;68.31
75039;BME280;63609;49.992;14.512;2023-04-24T07:30:40;97021.97;;;10.07;68.99
75039;BME280;63609;49.992;14.512;2023-04-24T07:33:07;97025.94;;;10.42;67.97
75039;BME280;63609;49.992;14.512;2023-04-24T07:35:34;97024.28;;;10.10;68.19
75039;BME280;63609;49.992;14.512;2023-04-24T07:38:02;97023.72;;;9.84;69.47
75039;BME280;63609;49.992;14.512;2023-04-24T07:40:28;97039.88;;;9.82;69.70
75039;BME280;63609;49.992;14.512;2023-04-24T07:42:56;97037.59;;;9.63;70.00
75039;BME280;63609;49.992;14.512;2023-04-24T07:45:23;97037.59;;;9.63;70.02
75039;BME280;63609;49.992;14.512;2023-04-24T07:47:50;97033.97;;;9.56;70.33
75039;BME280;63609;49.992;14.512;2023-04-24T07:50:17;97042.75;;;9.65;70.50
75039;BME280;63609;49.992;14.512;2023-04-24T07:52:44;97048.38;;;9.78;70.38
75039;BME280;63609;49.992;14.512;2023-04-24T07:55:11;97050.03;;;9.95;69.36
75039;BME280;63609;49.992;14.512;2023-04-24T07:57:38;97058.34;;;10.00;69.46
75039;BME280;63609;49.992;14.512;2023-04-24T08:00:05;97046.41;;;10.27;68.83
75039;BME280;63609;49.992;14.512;2023-04-24T08:02:37;97059.63;;;10.52;68.70
75039;BME280;63609;49.992;14.512;2023-04-24T08:05:05;97057.31;;;10.40;68.27
75039;BME280;63609;49.992;14.512;2023-04-24T08:07:32;97059.38;;;10.30;68.53
75039;BME280;63609;49.992;14.512;2023-04-24T08:09:59;97062.97;;;10.15;69.20
75039;BME280;63609;49.992;14.512;2023-04-24T08:12:28;97056.22;;;9.71;69.67
75039;BME280;63609;49.992;14.512;2023-04-24T08:14:56;97055.56;;;10.25;68.92
75039;BME280;63609;49.992;14.512;2023-04-24T08:17:23;97061.31;;;10.13;68.93
75039;BME280;63609;49.992;14.512;2023-04-24T08:19:50;97060.88;;;9.94;69.53
75039;BME280;63609;49.992;14.512;2023-04-24T08:22:19;97057.50;;;10.00;69.23
75039;BME280;63609;49.992;14.512;2023-04-24T08:24:46;97055.97;;;10.05;68.56
75039;BME280;63609;49.992;14.512;2023-04-24T08:27:13;97054.88;;;10.62;67.10
75039;BME280;63609;49.992;14.512;2023-04-24T08:29:40;97050.16;;;11.18;65.31
75039;BME280;63609;49.992;14.512;2023-04-24T08:32:07;97044.34;;;11.14;63.78
75039;BME280;63609;49.992;14.512;2023-04-24T08:34:34;97047.69;;;10.62;64.80
75039;BME280;63609;49.992;14.512;2023-04-24T08:37:02;97045.59;;;10.81;62.93
75039;BME280;63609;49.992;14.512;2023-04-24T08:39:29;97040.50;;;11.17;60.33
75039;BME280;63609;49.992;14.512;2023-04-24T08:41:56;97049.59;;;11.60;60.47
75039;BME280;63609;49.992;14.512;2023-04-24T08:44:23;97044.00;;;11.84;61.16
75039;BME280;63609;49.992;14.512;2023-04-24T08:46:50;97042.81;;;11.20;60.83
75039;BME280;63609;49.992;14.512;2023-04-24T08:49:18;97053.84;;;11.54;62.47
75039;BME280;63609;49.992;14.512;2023-04-24T08:51:45;97056.28;;;11.41;61.32
75039;BME280;63609;49.992;14.512;2023-04-24T08:54:14;97056.91;;;10.83;62.67
75039;BME280;63609;49.992;14.512;2023-04-24T08:56:43;97050.63;;;10.98;63.16
75039;BME280;63609;49.992;14.512;2023-04-24T08:59:11;97057.00;;;11.35;62.49
75039;BME280;63609;49.992;14.512;2023-04-24T09:01:39;97051.16;;;10.94;63.75
75039;BME280;63609;49.992;14.512;2023-04-24T09:04:08;97059.94;;;10.80;64.16
75039;BME280;63609;49.992;14.512;2023-04-24T09:06:40;97056.97;;;10.43;64.16
75039;BME280;63609;49.992;14.512;2023-04-24T09:09:08;97054.03;;;10.30;65.13
75039;BME280;63609;49.992;14.512;2023-04-24T09:11:36;97062.13;;;10.45;66.17
75039;BME280;63609;49.992;14.512;2023-04-24T09:14:10;97067.81;;;10.42;66.49
75039;BME280;63609;49.992;14.512;2023-04-24T09:16:37;97058.78;;;10.74;65.38
75039;BME280;63609;49.992;14.512;2023-04-24T09:19:04;97058.56;;;10.84;65.21
75039;BME280;63609;49.992;14.512;2023-04-24T09:21:35;97064.06;;;10.59;66.08
75039;BME280;63609;49.992;14.512;2023-04-24T09:24:05;97062.88;;;10.62;65.45
75039;BME280;63609;49.992;14.512;2023-04-24T09:26:35;97068.25;;;11.30;64.06
75039;BME280;63609;49.992;14.512;2023-04-24T09:29:03;97067.28;;;10.77;64.25
75039;BME280;63609;49.992;14.512;2023-04-24T09:31:31;97068.63;;;11.80;63.54
75039;BME280;63609;49.992;14.512;2023-04-24T09:34:02;97062.84;;;10.93;64.15
75039;BME280;63609;49.992;14.512;2023-04-24T09:36:36;97057.72;;;11.06;63.29
75039;BME280;63609;49.992;14.512;2023-04-24T09:39:05;97047.38;;;11.63;63.18
75039;BME280;63609;49.992;14.512;2023-04-24T09:41:34;97055.13;;;12.03;60.37
75039;BME280;63609;49.992;14.512;2023-04-24T09:44:16;97051.69;;;12.17;59.98
75039;BME280;63609;49.992;14.512;2023-04-24T09:46:45;97051.94;;;11.78;61.66
75039;BME280;63609;49.992;14.512;2023-04-24T09:49:14;97041.97;;;11.86;62.00
75039;BME280;63609;49.992;14.512;2023-04-24T09:51:44;97042.66;;;12.39;58.56
75039;BME280;63609;49.992;14.512;2023-04-24T09:54:16;97039.91;;;12.03;59.36
75039;BME280;63609;49.992;14.512;2023-04-24T09:56:45;97039.09;;;11.73;61.67
75039;BME280;63609;49.992;14.512;2023-04-24T09:59:17;97041.63;;;12.19;60.75
75039;BME280;63609;49.992;14.512;2023-04-24T10:01:45;97032.66;;;12.12;60.14
75039;BME280;63609;49.992;14.512;2023-04-24T10:04:20;97033.94;;;12.01;61.50
75039;BME280;63609;49.992;14.512;2023-04-24T10:06:49;97032.94;;;11.87;61.51
75039;BME280;63609;49.992;14.512;2023-04-24T10:09:18;97035.94;;;12.43;62.15
75039;BME280;63609;49.992;14.512;2023-04-24T10:11:47;97032.88;;;12.82;60.32
75039;BME280;63609;49.992;14.512;2023-04-24T10:14:19;97036.94;;;12.78;59.88
75039;BME280;63609;49.992;14.512;2023-04-24T10:16:47;97034.69;;;12.10;60.50
75039;BME280;63609;49.992;14.512;2023-04-24T10:19:15;97028.75;;;11.99;59.61
75039;BME280;63609;49.992;14.512;2023-04-24T10:21:43;97031.81;;;11.96;60.36
75039;BME280;63609;49.992;14.512;2023-04-24T10:24:14;97030.22;;;12.68;57.04
75039;BME280;63609;49.992;14.512;2023-04-24T10:26:45;97034.28;;;12.78;58.11
75039;BME280;63609;49.992;14.512;2023-04-24T10:29:14;97025.53;;;13.62;55.60
75039;BME280;63609;49.992;14.512;2023-04-24T10:31:42;97018.03;;;13.85;54.74
75039;BME280;63609;49.992;14.512;2023-04-24T10:34:12;97018.69;;;13.94;55.86
75039;BME280;63609;49.992;14.512;2023-04-24T10:36:45;97022.31;;;13.45;56.00
75039;BME280;63609;49.992;14.512;2023-04-24T10:39:13;97021.72;;;13.49;56.25
75039;BME280;63609;49.992;14.512;2023-04-24T10:41:44;97022.75;;;13.48;56.31
75039;BME280;63609;49.992;14.512;2023-04-24T10:44:14;97029.47;;;12.95;56.29
75039;BME280;63609;49.992;14.512;2023-04-24T10:46:46;97021.19;;;12.69;56.85
75039;BME280;63609;49.992;14.512;2023-04-24T10:49:14;97018.56;;;12.97;56.17
75039;BME280;63609;49.992;14.512;2023-04-24T10:51:48;97026.44;;;13.19;56.33
75039;BME280;63609;49.992;14.512;2023-04-24T10:54:26;97020.16;;;13.12;55.56
75039;BME280;63609;49.992;14.512;2023-04-24T10:59:47;96998.88;;;14.36;54.70
75039;BME280;63609;49.992;14.512;2023-04-24T11:02:15;96998.22;;;14.21;49.42
75039;BME280;63609;49.992;14.512;2023-04-24T11:04:43;96995.47;;;14.62;47.36
75039;BME280;63609;49.992;14.512;2023-04-24T11:07:11;96998.50;;;14.39;48.61
75039;BME280;63609;49.992;14.512;2023-04-24T11:09:38;97001.50;;;14.77;47.93
75039;BME280;63609;49.992;14.512;2023-04-24T11:12:11;96997.78;;;14.91;47.55
75039;BME280;63609;49.992;14.512;2023-04-24T11:17:33;96993.44;;;14.90;49.03
75039;BME280;63609;49.992;14.512;2023-04-24T11:20:08;96991.78;;;14.69;47.85
75039;BME280;63609;49.992;14.512;2023-04-24T11:22:54;96984.34;;;14.91;46.16
75039;BME280;63609;49.992;14.512;2023-04-24T11:25:22;96998.34;;;14.67;48.81
75039;BME280;63609;49.992;14.512;2023-04-24T11:27:49;96995.41;;;14.01;46.81
75039;BME280;63609;49.992;14.512;2023-04-24T11:30:20;96988.09;;;14.16;49.36
75039;BME280;63609;49.992;14.512;2023-04-24T11:32:48;96995.75;;;15.33;46.54
75039;BME280;63609;49.992;14.512;2023-04-24T11:35:21;96992.63;;;15.62;45.66
75039;BME280;63609;49.992;14.512;2023-04-24T11:37:52;96992.66;;;15.29;46.35
75039;BME280;63609;49.992;14.512;2023-04-24T11:40:39;97002.59;;;15.49;45.80
75039;BME280;63609;49.992;14.512;2023-04-24T11:43:08;96988.94;;;15.50;44.68
75039;BME280;63609;49.992;14.512;2023-04-24T11:45:35;96990.44;;;16.17;43.69
75039;BME280;63609;49.992;14.512;2023-04-24T11:48:03;97002.44;;;14.43;46.61
75039;BME280;63609;49.992;14.512;2023-04-24T11:50:30;96992.69;;;15.03;45.18
75039;BME280;63609;49.992;14.512;2023-04-24T11:52:57;96988.69;;;15.65;46.33
75039;BME280;63609;49.992;14.512;2023-04-24T11:55:26;96991.78;;;14.69;44.65
75039;BME280;63609;49.992;14.512;2023-04-24T11:57:56;96983.78;;;15.16;45.64
75039;BME280;63609;49.992;14.512;2023-04-24T12:00:26;96988.72;;;14.25;45.75
75039;BME280;63609;49.992;14.512;2023-04-24T12:03:09;96980.00;;;14.70;46.09
75039;BME280;63609;49.992;14.512;2023-04-24T12:05:39;96979.22;;;15.23;44.91
75039;BME280;63609;49.992;14.512;2023-04-24T12:08:06;96986.34;;;14.43;46.46
75039;BME280;63609;49.992;14.512;2023-04-24T12:10:34;96982.75;;;13.81;46.54
75039;BME280;63609;49.992;14.512;2023-04-24T12:13:02;96985.38;;;13.75;47.95
75039;BME280;63609;49.992;14.512;2023-04-24T12:15:30;96988.41;;;13.37;49.17
75039;BME280;63609;49.992;14.512;2023-04-24T12:17:57;97009.34;;;12.78;53.73
75039;BME280;63609;49.992;14.512;2023-04-24T12:20:29;97016.94;;;11.35;57.41
75039;BME280;63609;49.992;14.512;2023-04-24T12:23:00;97036.66;;;10.03;64.56
75039;BME280;63609;49.992;14.512;2023-04-24T12:25:33;97045.50;;;8.92;69.19
75039;BME280;63609;49.992;14.512;2023-04-24T12:28:52;97050.06;;;8.49;71.03
75039;BME280;63609;49.992;14.512;2023-04-24T12:31:40;97025.66;;;8.62;68.79
75039;BME280;63609;49.992;14.512;2023-04-24T12:34:44;97036.63;;;8.67;70.38
75039;BME280;63609;49.992;14.512;2023-04-24T12:37:12;97014.84;;;8.63;69.10
75039;BME280;63609;49.992;14.512;2023-04-24T12:39:57;97036.47;;;9.41;67.16
75039;BME280;63609;49.992;14.512;2023-04-24T12:42:27;97035.97;;;9.54;67.85
75039;BME280;63609;49.992;14.512;2023-04-24T12:45:06;97034.97;;;9.39;67.43
75039;BME280;63609;49.992;14.512;2023-04-24T12:47:34;97027.41;;;9.75;66.84
75039;BME280;63609;49.992;14.512;2023-04-24T12:50:02;97031.19;;;9.97;66.45
75039;BME280;63609;49.992;14.512;2023-04-24T12:52:29;97033.94;;;10.11;66.64
75039;BME280;63609;49.992;14.512;2023-04-24T12:54:59;97028.31;;;10.06;65.23
75039;BME280;63609;49.992;14.512;2023-04-24T12:57:28;97031.56;;;10.25;67.40
75039;BME280;63609;49.992;14.512;2023-04-24T12:59:56;97039.94;;;10.44;66.93
75039;BME280;63609;49.992;14.512;2023-04-24T13:02:24;97029.59;;;10.50;65.91
75039;BME280;63609;49.992;14.512;2023-04-24T13:04:53;97041.00;;;10.66;65.88
75039;BME280;63609;49.992;14.512;2023-04-24T13:07:21;97023.72;;;10.54;66.74
75039;BME280;63609;49.992;14.512;2023-04-24T13:09:50;97026.31;;;10.39;66.46
75039;BME280;63609;49.992;14.512;2023-04-24T13:12:17;97033.94;;;10.51;67.20